Time;durP1;ratioP1;P1;durP2;ratioP2;P2;SDS_P1;SDS_P2;PMS_P1;PMS_P2;Temp;Humidity;BMP_temperature;BMP_pressure;BME280_temperature;BME280_humidity;BME280_pressure;Samples;Min_cycle;Max_cycle;Signal;HPM_P1;HPM_P2
2021/09/14 08:03:34;;;;;;;8.88;6.80;;;;;;;19.93;64.00;100327.03;5145767;27;20123;-53
2021/09/14 08:06:04;;;;;;;8.05;6.78;;;;;;;19.77;63.86;100326.66;5129117;27;20108;-52
2021/09/14 08:08:31;;;;;;;10.20;6.47;;;;;;;19.62;64.35;100315.41;5112296;28;20144;-53
2021/09/14 08:10:57;;;;;;;8.15;6.10;;;;;;;19.61;64.95;100327.97;5111402;28;20065;-53
2021/09/14 08:13:33;;;;;;;7.85;6.57;;;;;;;19.55;65.22;100324.97;5107996;28;20150;-53
2021/09/14 08:16:00;;;;;;;7.97;6.40;;;;;;;19.58;65.19;100330.06;5113083;28;20047;-53
2021/09/14 08:18:26;;;;;;;6.93;6.22;;;;;;;19.62;65.81;100326.16;5108264;27;20051;-52
2021/09/14 08:20:53;;;;;;;7.95;6.20;;;;;;;19.85;65.95;100333.06;5113257;28;20051;-54
2021/09/14 08:23:19;;;;;;;7.22;5.75;;;;;;;20.06;64.87;100338.41;5117833;28;20043;-53
2021/09/14 08:25:46;;;;;;;10.35;6.30;;;;;;;20.16;64.54;100327.69;5108755;28;20047;-53
2021/09/14 08:28:12;;;;;;;7.57;6.07;;;;;;;20.24;64.82;100334.13;5111894;28;20050;-52
2021/09/14 08:30:39;;;;;;;6.53;5.80;;;;;;;20.32;64.18;100333.44;5110662;28;20047;-52
2021/09/14 08:33:05;;;;;;;8.25;6.68;;;;;;;20.42;62.83;100330.81;5112739;28;20039;-52
2021/09/14 08:35:32;;;;;;;6.97;5.70;;;;;;;20.48;62.59;100322.19;5113480;27;20051;-53
2021/09/14 08:37:58;;;;;;;6.82;5.75;;;;;;;20.54;62.25;100318.97;5111425;28;20067;-53
2021/09/14 08:40:25;;;;;;;8.80;6.20;;;;;;;20.66;63.34;100315.16;5112995;28;20460;-53
2021/09/14 08:42:52;;;;;;;7.30;6.18;;;;;;;20.83;63.11;100313.63;5105232;28;20534;-52
2021/09/14 08:45:19;;;;;;;8.73;6.75;;;;;;;20.93;61.19;100311.84;5115139;27;20043;-52
2021/09/14 08:47:47;;;;;;;8.15;6.57;;;;;;;20.94;61.15;100313.50;5111314;27;20047;-51
2021/09/14 08:50:15;;;;;;;6.85;6.03;;;;;;;20.96;60.85;100311.53;5113759;28;20558;-51
2021/09/14 08:52:41;;;;;;;11.43;6.82;;;;;;;20.99;60.85;100306.72;5108160;28;20191;-55
2021/09/14 08:55:09;;;;;;;7.90;6.65;;;;;;;21.01;61.85;100315.50;5113400;28;20059;-52
2021/09/14 08:57:36;;;;;;;7.38;6.68;;;;;;;21.27;61.49;100318.50;5110904;28;20052;-52
2021/09/14 09:00:03;;;;;;;9.25;6.65;;;;;;;21.63;59.71;100325.00;5111728;28;20055;-53
2021/09/14 09:02:30;;;;;;;10.68;6.65;;;;;;;22.03;58.25;100323.97;5107859;28;20158;-51
2021/09/14 09:04:59;;;;;;;9.45;6.63;;;;;;;22.42;56.95;100323.78;5115177;28;20051;-53
2021/09/14 09:07:27;;;;;;;11.85;6.63;;;;;;;22.64;56.52;100331.50;5120478;27;20057;-52
2021/09/14 09:09:54;;;;;;;10.02;6.25;;;;;;;22.73;55.76;100338.66;5111328;27;20051;-53
2021/09/14 09:12:20;;;;;;;10.25;6.50;;;;;;;22.69;56.06;100329.16;5115771;28;20055;-53
2021/09/14 09:14:50;;;;;;;12.73;7.20;;;;;;;22.68;55.81;100330.16;5099593;28;20056;-52
2021/09/14 09:17:18;;;;;;;8.25;7.00;;;;;;;22.51;56.48;100322.91;5098761;28;20047;-53
2021/09/14 09:19:58;;;;;;;8.23;5.95;;;;;;;22.54;57.01;100327.97;5097556;28;20054;-52
2021/09/14 09:22:25;;;;;;;8.27;6.72;;;;;;;22.60;56.05;100320.13;5099693;28;20416;-53
2021/09/14 09:24:53;;;;;;;13.77;6.50;;;;;;;22.57;56.18;100328.53;5095211;28;20055;-52
2021/09/14 09:27:22;;;;;;;7.57;5.95;;;;;;;22.59;56.73;100331.09;5102501;28;20051;-53
2021/09/14 09:30:09;;;;;;;9.45;6.18;;;;;;;22.64;56.73;100321.53;5102566;28;20047;-52
2021/09/14 09:32:50;;;;;;;7.18;5.75;;;;;;;22.85;56.14;100326.69;5103626;28;20056;-53
2021/09/14 09:35:26;;;;;;;;;;;;;;;22.80;56.61;100301.16;5093861;27;20048;-52
2021/09/14 09:37:54;;;;;;;10.43;6.45;;;;;;;23.18;56.11;100325.16;5099483;28;19947;-52
2021/09/14 09:40:35;;;;;;;7.05;5.80;;;;;;;23.76;54.53;100327.38;5102387;28;20066;-51
2021/09/14 09:43:08;;;;;;;9.43;6.60;;;;;;;24.25;52.72;100316.84;5097576;28;20508;-53
2021/09/14 09:45:47;;;;;;;9.15;6.57;;;;;;;24.46;51.96;100320.00;5101786;28;20047;-53
2021/09/14 09:48:15;;;;;;;9.53;6.63;;;;;;;24.86;50.13;100315.75;5103328;28;20489;-54
2021/09/14 09:50:43;;;;;;;7.47;6.25;;;;;;;25.30;49.97;100317.19;5094890;28;20062;-53
2021/09/14 09:53:11;;;;;;;8.43;6.10;;;;;;;25.75;49.38;100311.25;5080723;28;20048;-53
2021/09/14 09:55:39;;;;;;;7.70;6.03;;;;;;;26.40;47.19;100313.00;5105256;28;20048;-52
2021/09/14 09:58:07;;;;;;;10.65;6.30;;;;;;;26.76;45.48;100316.03;5100186;28;20050;-52
2021/09/14 10:00:38;;;;;;;8.20;6.47;;;;;;;26.44;46.35;100307.03;5100630;28;20047;-54
2021/09/14 10:03:22;;;;;;;8.75;6.18;;;;;;;26.41;46.46;100298.38;5092359;28;20060;-54
2021/09/14 10:05:51;;;;;;;6.97;6.30;;;;;;;26.36;46.16;100288.06;5081299;28;20946;-53
2021/09/14 10:08:22;;;;;;;9.95;7.03;;;;;;;26.28;46.49;100292.66;5094081;28;20096;-51
2021/09/14 10:10:56;;;;;;;7.05;6.05;;;;;;;26.36;47.07;100298.06;5095399;28;20044;-52
2021/09/14 10:13:39;;;;;;;7.75;6.20;;;;;;;26.61;45.49;100296.91;5097691;28;20047;-52
2021/09/14 10:16:10;;;;;;;9.73;6.70;;;;;;;26.60;45.19;100297.13;5096200;28;20054;-54
2021/09/14 10:18:38;;;;;;;8.68;6.45;;;;;;;26.50;46.46;100298.16;5098491;28;20417;-53
2021/09/14 10:21:04;;;;;;;7.50;6.22;;;;;;;26.45;45.33;100299.69;5096764;28;20058;-52
2021/09/14 10:23:34;;;;;;;7.78;5.95;;;;;;;26.37;46.34;100292.47;5092245;28;20048;-54
2021/09/14 10:26:06;;;;;;;10.25;5.88;;;;;;;26.77;46.26;100294.09;5087913;28;20054;-53
2021/09/14 10:28:44;;;;;;;8.13;5.70;;;;;;;26.86;45.75;100298.47;5092576;28;20055;-53
2021/09/14 10:31:39;;;;;;;8.50;5.50;;;;;;;27.14;45.30;100295.25;5093126;28;20060;-53
2021/09/14 10:34:13;;;;;;;11.57;5.93;;;;;;;27.28;44.34;100299.91;5093011;28;20596;-53
2021/09/14 10:36:46;;;;;;;10.25;6.38;;;;;;;27.04;44.76;100308.25;5101642;28;20053;-52
2021/09/14 10:39:23;;;;;;;7.28;6.15;;;;;;;27.03;44.30;100306.56;5092106;28;20393;-53
2021/09/14 10:41:53;;;;;;;7.90;5.47;;;;;;;27.23;43.97;100314.03;5086982;28;20404;-53
2021/09/14 10:44:31;;;;;;;6.45;5.50;;;;;;;27.31;44.42;100299.53;5094533;28;20048;-55
2021/09/14 10:47:10;;;;;;;10.68;6.03;;;;;;;27.53;43.28;100282.38;5097417;28;20622;-52
2021/09/14 10:49:53;;;;;;;6.88;6.10;;;;;;;27.76;44.44;100295.09;5096720;28;20040;-52
2021/09/14 10:52:30;;;;;;;10.80;5.78;;;;;;;27.91;42.77;100279.63;5097510;28;20058;-54
2021/09/14 10:54:57;;;;;;;6.88;5.53;;;;;;;28.12;43.56;100300.66;5095068;28;20051;-53
2021/09/14 10:57:36;;;;;;;5.68;5.10;;;;;;;28.54;42.18;100292.66;5094068;28;20483;-53
2021/09/14 11:00:06;;;;;;;11.52;5.85;;;;;;;28.85;41.14;100291.59;5091849;28;20052;-52
2021/09/14 11:02:32;;;;;;;7.45;5.80;;;;;;;28.98;40.88;100289.00;5096338;27;20052;-53
2021/09/14 11:05:00;;;;;;;6.32;5.00;;;;;;;29.42;39.99;100288.84;5088669;27;20619;-53
2021/09/14 11:07:30;;;;;;;7.35;5.60;;;;;;;29.42;39.17;100288.84;5090206;28;20445;-54
2021/09/14 11:10:00;;;;;;;5.85;4.90;;;;;;;29.47;39.20;100277.31;5088902;28;20104;-54
2021/09/14 11:12:30;;;;;;;7.00;5.13;;;;;;;29.31;39.84;100275.69;5089005;28;20048;-52
2021/09/14 11:14:58;;;;;;;6.30;4.95;;;;;;;29.58;39.71;100268.63;5086995;28;20489;-52
2021/09/14 11:17:31;;;;;;;6.10;4.60;;;;;;;29.78;38.64;100260.56;5088409;27;20055;-53
2021/09/14 11:20:30;;;;;;;5.22;4.75;;;;;;;29.98;38.57;100269.75;5094660;27;20097;-53
2021/09/14 11:23:00;;;;;;;8.82;4.90;;;;;;;30.13;38.55;100273.19;5082354;28;20138;-53
2021/09/14 11:25:28;;;;;;;6.45;4.47;;;;;;;30.61;37.55;100254.09;5096709;28;20058;-55
2021/09/14 11:28:09;;;;;;;6.47;4.60;;;;;;;31.09;36.74;100254.84;5094333;28;20504;-55
2021/09/14 11:30:40;;;;;;;6.43;4.65;;;;;;;31.27;37.06;100244.16;5100903;28;20058;-54
2021/09/14 11:33:07;;;;;;;7.15;4.40;;;;;;;31.38;36.80;100239.94;5098359;28;20122;-54
2021/09/14 11:35:36;;;;;;;4.78;4.20;;;;;;;31.18;37.25;100258.25;5096772;28;20048;-54
2021/09/14 11:38:05;;;;;;;5.65;4.25;;;;;;;31.12;36.77;100256.38;5094728;28;20062;-54
2021/09/14 11:40:34;;;;;;;6.43;4.00;;;;;;;31.15;36.35;100264.16;5093755;28;20059;-54
2021/09/14 11:43:03;;;;;;;6.10;3.92;;;;;;;31.33;36.91;100257.00;5101821;28;20048;-54
2021/09/14 11:45:32;;;;;;;4.82;4.28;;;;;;;31.81;35.19;100256.78;5094626;28;20043;-53
2021/09/14 11:48:01;;;;;;;7.22;4.35;;;;;;;32.32;34.53;100254.13;5092028;28;20718;-52
2021/09/14 11:50:43;;;;;;;6.18;3.72;;;;;;;32.23;34.99;100258.19;5097386;28;20083;-52
2021/09/14 11:53:19;;;;;;;4.22;3.70;;;;;;;32.04;35.56;100253.56;5097649;28;20051;-53
2021/09/14 11:55:48;;;;;;;7.40;4.45;;;;;;;31.76;35.25;100255.75;5099573;28;20048;-52
2021/09/14 11:58:28;;;;;;;5.75;4.43;;;;;;;31.66;35.31;100262.47;5102855;28;20051;-53
2021/09/14 12:01:01;;;;;;;6.90;4.70;;;;;;;31.16;36.62;100257.63;5094793;28;20502;-52
2021/09/14 12:03:54;;;;;;;8.07;4.57;;;;;;;31.14;36.95;100260.56;5083707;28;20055;-52
2021/09/14 12:06:32;;;;;;;7.32;3.95;;;;;;;31.60;36.02;100260.56;5088088;28;20472;-53
2021/09/14 12:09:08;;;;;;;5.40;4.10;;;;;;;32.04;36.19;100261.78;5095404;28;20055;-53
2021/09/14 12:11:35;;;;;;;6.18;3.60;;;;;;;31.65;36.69;100258.06;5087130;28;20135;-53
2021/09/14 12:14:06;;;;;;;4.35;3.97;;;;;;;31.45;36.22;100264.59;5085967;28;20075;-51
2021/09/14 12:16:37;;;;;;;5.63;4.45;;;;;;;31.62;36.14;100261.22;5092596;28;20055;-52
2021/09/14 12:19:05;;;;;;;4.40;4.00;;;;;;;32.07;36.03;100253.16;5099369;28;20047;-53
2021/09/14 12:21:31;;;;;;;6.40;4.03;;;;;;;32.17;36.06;100253.53;5089363;28;20055;-54
2021/09/14 12:23:58;;;;;;;4.43;3.90;;;;;;;31.89;36.28;100252.97;5086414;28;20050;-54
2021/09/14 12:26:28;;;;;;;6.00;3.50;;;;;;;32.07;35.47;100250.41;5090352;28;20056;-51
2021/09/14 12:28:57;;;;;;;5.40;3.50;;;;;;;32.13;35.53;100246.78;5082272;28;20412;-52
2021/09/14 12:31:28;;;;;;;6.10;4.05;;;;;;;31.94;35.41;100243.06;5088758;28;20044;-51
2021/09/14 12:33:55;;;;;;;5.43;3.47;;;;;;;31.76;36.33;100236.59;5098668;28;20047;-54
2021/09/14 12:36:22;;;;;;;7.93;4.25;;;;;;;32.00;36.56;100239.47;5081256;28;20102;-52
2021/09/14 12:38:48;;;;;;;4.93;3.70;;;;;;;32.59;34.96;100229.34;5087233;28;20070;-52
2021/09/14 12:41:15;;;;;;;5.00;3.70;;;;;;;33.06;34.35;100228.84;5094180;28;20825;-55
2021/09/14 12:43:46;;;;;;;5.40;3.97;;;;;;;33.22;33.29;100224.72;5076297;28;20440;-53
2021/09/14 12:46:14;;;;;;;3.50;3.13;;;;;;;33.58;33.03;100223.16;5034302;28;20053;-53
2021/09/14 12:48:41;;;;;;;4.45;3.60;;;;;;;34.19;31.81;100219.56;5035568;28;20044;-52
2021/09/14 12:51:08;;;;;;;6.22;3.47;;;;;;;34.69;30.98;100215.53;5040129;28;20067;-52
2021/09/14 12:53:35;;;;;;;4.45;3.75;;;;;;;34.72;30.45;100228.81;5041011;28;21843;-52
2021/09/14 12:56:02;;;;;;;4.10;3.45;;;;;;;34.67;30.80;100222.34;5040757;28;20048;-53
2021/09/14 12:58:41;;;;;;;4.78;3.88;;;;;;;34.66;30.51;100228.91;5042061;28;20052;-54
2021/09/14 13:01:08;;;;;;;5.47;3.95;;;;;;;34.20;30.59;100222.06;5038069;28;20788;-54
2021/09/14 13:03:35;;;;;;;5.13;4.13;;;;;;;34.32;31.24;100233.16;5003463;28;20131;-53
2021/09/14 13:06:01;;;;;;;4.28;3.63;;;;;;;34.96;30.19;100227.00;5039084;28;20047;-53
2021/09/14 13:08:28;;;;;;;5.55;3.75;;;;;;;35.31;29.52;100218.84;5040076;28;20122;-52
2021/09/14 13:10:56;;;;;;;3.80;3.42;;;;;;;35.31;29.09;100212.50;5042062;28;20551;-52
2021/09/14 13:16:29;;;;;;;6.32;3.70;;;;;;;33.47;31.22;100219.25;4951773;28;20050;-51
2021/09/14 13:18:55;;;;;;;5.00;3.50;;;;;;;32.76;32.93;100217.66;4947345;28;20735;-52
2021/09/14 13:21:23;;;;;;;4.65;3.50;;;;;;;32.14;33.51;100209.28;4994760;28;20059;-54
2021/09/14 13:23:51;;;;;;;8.27;3.50;;;;;;;31.24;35.36;100209.00;5034256;28;20242;-53
2021/09/14 13:26:19;;;;;;;4.53;3.50;;;;;;;30.45;37.13;100210.72;5034282;28;20590;-51
2021/09/14 13:28:46;;;;;;;4.75;3.28;;;;;;;30.10;38.52;100213.53;5030496;28;20158;-53
2021/09/14 13:31:13;;;;;;;5.32;3.95;;;;;;;30.03;38.73;100215.41;5034960;28;20048;-51
2021/09/14 13:33:39;;;;;;;4.90;3.35;;;;;;;29.94;38.48;100208.38;5032997;28;20045;-51
2021/09/14 13:36:07;;;;;;;5.25;3.50;;;;;;;29.76;39.18;100214.34;5039676;28;20132;-52
2021/09/14 13:38:33;;;;;;;6.25;4.03;;;;;;;29.66;39.46;100211.16;5038328;28;20097;-52
2021/09/14 13:41:10;;;;;;;4.70;3.53;;;;;;;29.44;39.96;100204.91;5037461;28;20097;-54
2021/09/14 13:46:15;;;;;;;5.60;3.97;;;;;;;28.86;41.20;100204.19;5031563;28;20053;-52
2021/09/14 13:48:49;;;;;;;6.80;3.90;;;;;;;28.59;41.39;100205.75;5036872;28;20049;-52
2021/09/14 13:51:18;;;;;;;6.25;3.90;;;;;;;28.48;41.99;100202.72;5032805;28;20063;-52
2021/09/14 13:53:49;;;;;;;6.10;3.60;;;;;;;28.32;42.62;100203.78;5037936;28;20525;-54
2021/09/14 13:56:21;;;;;;;4.68;3.72;;;;;;;28.11;43.02;100209.97;5033383;28;20505;-51
2021/09/14 13:58:49;;;;;;;6.35;3.58;;;;;;;27.96;43.79;100211.88;5032319;28;20471;-51
2021/09/14 14:01:16;;;;;;;6.70;4.15;;;;;;;27.88;44.15;100214.66;5036689;28;20082;-52
2021/09/14 14:03:43;;;;;;;7.72;3.95;;;;;;;27.79;44.17;100213.94;5072634;28;20581;-51
2021/09/14 14:06:10;;;;;;;4.38;3.60;;;;;;;27.71;44.67;100202.28;5069103;28;20424;-53
2021/09/14 14:08:37;;;;;;;4.00;3.60;;;;;;;27.76;45.26;100208.03;5073008;28;20522;-53
2021/09/14 14:11:04;;;;;;;4.30;3.90;;;;;;;27.82;45.21;100196.41;5080513;28;20059;-53
2021/09/14 14:13:30;;;;;;;3.75;3.45;;;;;;;27.95;44.90;100196.56;5077621;28;20365;-53
2021/09/14 14:15:57;;;;;;;4.90;3.75;;;;;;;27.94;45.38;100197.59;5075146;28;20064;-52
2021/09/14 14:18:23;;;;;;;4.35;3.30;;;;;;;27.68;45.58;100183.63;5066636;28;20096;-52
2021/09/14 14:20:50;;;;;;;3.58;3.28;;;;;;;27.78;45.47;100193.19;5073052;28;20055;-52
2021/09/14 14:23:16;;;;;;;5.82;4.25;;;;;;;27.67;45.24;100192.84;5068911;28;20056;-53
2021/09/14 14:25:43;;;;;;;6.10;4.30;;;;;;;27.61;45.79;100197.13;5072999;28;20047;-53
2021/09/14 14:28:09;;;;;;;4.60;3.45;;;;;;;27.55;45.46;100195.97;5072657;28;20710;-53
2021/09/14 14:30:38;;;;;;;4.55;4.15;;;;;;;27.48;45.65;100200.47;5066753;28;20162;-50
2021/09/14 14:33:05;;;;;;;4.32;3.92;;;;;;;27.41;45.14;100199.50;5067653;28;20131;-51
2021/09/14 14:35:32;;;;;;;4.60;4.18;;;;;;;27.25;45.14;100200.50;5073744;28;20048;-53
2021/09/14 14:37:59;;;;;;;5.53;3.72;;;;;;;26.99;45.19;100201.97;5072518;28;20059;-52
2021/09/14 14:40:26;;;;;;;4.90;4.40;;;;;;;26.92;45.51;100191.78;5074396;28;20048;-52
2021/09/14 14:42:52;;;;;;;5.47;4.05;;;;;;;26.88;45.95;100201.34;5069893;28;20051;-53
2021/09/14 14:45:19;;;;;;;5.22;4.35;;;;;;;26.80;46.00;100205.97;5072668;28;20143;-52
2021/09/14 14:47:49;;;;;;;5.97;3.95;;;;;;;26.76;47.16;100204.66;5065343;28;20102;-52
2021/09/14 14:50:20;;;;;;;5.28;4.00;;;;;;;26.67;47.55;100195.72;5074562;28;20052;-52
2021/09/14 14:52:47;;;;;;;4.55;3.80;;;;;;;26.67;47.49;100197.59;5076615;28;20045;-52
2021/09/14 14:55:15;;;;;;;4.85;3.75;;;;;;;26.85;47.42;100196.25;5073127;28;20052;-52
2021/09/14 14:57:42;;;;;;;6.30;3.92;;;;;;;27.13;47.51;100196.56;5071820;28;20044;-52
2021/09/14 15:00:11;;;;;;;4.68;3.83;;;;;;;27.45;46.88;100206.28;5074210;28;20717;-53
2021/09/14 15:02:38;;;;;;;6.07;4.82;;;;;;;27.46;46.52;100194.38;5072132;28;20045;-53
2021/09/14 15:05:06;;;;;;;6.50;4.40;;;;;;;27.35;46.36;100199.44;5079464;28;20044;-51
2021/09/14 15:07:32;;;;;;;4.65;4.05;;;;;;;27.17;46.63;100197.03;5078251;28;20044;-51
2021/09/14 15:10:00;;;;;;;4.72;3.80;;;;;;;27.01;47.72;100191.75;5077790;28;20143;-52
2021/09/14 15:12:27;;;;;;;5.88;4.25;;;;;;;26.86;47.83;100183.53;5075407;28;20126;-52
2021/09/14 15:14:55;;;;;;;5.43;4.38;;;;;;;26.68;48.35;100185.69;5075686;28;20056;-52
2021/09/14 15:17:21;;;;;;;5.00;4.05;;;;;;;26.60;48.73;100193.91;5076733;28;20386;-52
2021/09/14 15:19:49;;;;;;;5.80;4.07;;;;;;;26.49;49.33;100197.88;5075512;28;20728;-52
2021/09/14 15:22:16;;;;;;;6.82;4.57;;;;;;;26.36;49.54;100200.31;5080139;28;20052;-56
2021/09/14 15:24:43;;;;;;;6.18;4.43;;;;;;;26.27;49.65;100196.78;5073610;28;20058;-54
2021/09/14 15:27:10;;;;;;;6.28;4.30;;;;;;;26.11;50.08;100196.88;5073235;28;20044;-52
2021/09/14 15:29:36;;;;;;;5.85;5.18;;;;;;;26.01;50.57;100194.34;5070284;28;20051;-52
2021/09/14 15:32:04;;;;;;;4.90;4.50;;;;;;;25.95;51.23;100189.66;5073628;28;20063;-52
2021/09/14 15:34:30;;;;;;;5.18;4.68;;;;;;;25.78;50.99;100177.16;5076988;28;20072;-54
2021/09/14 15:36:57;;;;;;;6.55;4.40;;;;;;;25.86;51.10;100190.69;5074599;28;20066;-53
2021/09/14 15:39:24;;;;;;;5.57;4.22;;;;;;;25.77;51.33;100176.31;5074182;28;20067;-52
2021/09/14 15:41:50;;;;;;;6.32;4.45;;;;;;;25.95;50.72;100197.78;5074214;28;20048;-53
2021/09/14 15:44:17;;;;;;;5.35;4.30;;;;;;;26.01;50.72;100196.22;5074657;28;20055;-55
2021/09/14 15:46:45;;;;;;;5.28;4.20;;;;;;;26.11;50.32;100200.44;5076590;28;20504;-52
2021/09/14 15:49:11;;;;;;;5.63;4.45;;;;;;;26.19;50.25;100192.25;5070663;28;20044;-55
2021/09/14 15:51:40;;;;;;;5.43;4.53;;;;;;;26.28;49.85;100195.78;5075686;28;20408;-54
2021/09/14 15:54:07;;;;;;;5.15;4.25;;;;;;;26.36;49.91;100176.75;5078773;28;20129;-51
2021/09/14 15:56:34;;;;;;;6.28;4.50;;;;;;;26.40;50.18;100177.22;5072646;28;20498;-52
2021/09/14 15:59:00;;;;;;;4.55;4.15;;;;;;;26.33;50.16;100176.25;5076771;28;20044;-52
2021/09/14 16:01:27;;;;;;;5.82;4.20;;;;;;;26.18;50.24;100167.97;5073210;28;20074;-53
2021/09/14 16:03:54;;;;;;;5.38;4.32;;;;;;;26.04;50.21;100166.88;5076457;28;20048;-51
2021/09/14 16:06:20;;;;;;;5.90;4.65;;;;;;;25.96;50.22;100166.09;5065625;28;20454;-53
2021/09/14 16:08:47;;;;;;;5.57;4.15;;;;;;;25.84;50.57;100162.88;5071743;28;20052;-52
2021/09/14 16:11:15;;;;;;;4.90;4.20;;;;;;;25.78;50.65;100161.75;5062052;28;20044;-51
2021/09/14 16:13:41;;;;;;;4.80;4.40;;;;;;;25.72;51.10;100167.84;5068753;28;20063;-52
2021/09/14 16:16:08;;;;;;;6.60;4.25;;;;;;;25.62;51.47;100171.81;5063554;28;20357;-52
2021/09/14 16:18:34;;;;;;;7.25;5.15;;;;;;;25.41;51.84;100156.06;5065411;28;20052;-52
2021/09/14 16:21:01;;;;;;;4.70;4.20;;;;;;;25.43;52.18;100168.44;5072988;28;20044;-53
2021/09/14 16:23:27;;;;;;;5.72;4.97;;;;;;;25.37;52.02;100166.41;5071620;28;20040;-53
2021/09/14 16:25:55;;;;;;;4.88;4.47;;;;;;;25.31;52.44;100169.81;5064367;28;20044;-52
2021/09/14 16:28:21;;;;;;;5.05;4.55;;;;;;;25.26;52.82;100172.19;5070116;28;20059;-51
2021/09/14 16:30:48;;;;;;;5.75;5.10;;;;;;;25.22;52.68;100159.13;5062371;28;20673;-51
2021/09/14 16:33:16;;;;;;;5.60;4.53;;;;;;;25.19;52.97;100168.44;5067095;28;20048;-52
2021/09/14 16:35:43;;;;;;;4.97;4.47;;;;;;;25.13;53.21;100163.75;5071699;28;20059;-52
2021/09/14 16:38:10;;;;;;;8.35;4.60;;;;;;;25.03;53.32;100158.47;5071545;28;20044;-54
2021/09/14 16:40:36;;;;;;;5.10;4.25;;;;;;;24.97;53.84;100161.88;5066411;28;20067;-54
2021/09/14 16:43:11;;;;;;;6.68;5.18;;;;;;;24.90;54.09;100168.97;5071601;28;20048;-53
2021/09/14 16:45:38;;;;;;;5.20;4.70;;;;;;;24.82;54.09;100164.41;5067966;28;21027;-53
2021/09/14 16:48:04;;;;;;;5.47;4.88;;;;;;;24.76;54.59;100167.78;5065620;28;20562;-52
2021/09/14 16:50:31;;;;;;;6.65;4.97;;;;;;;24.70;54.97;100159.50;5065957;28;20875;-53
2021/09/14 16:52:57;;;;;;;6.45;5.05;;;;;;;24.62;54.76;100164.88;5070250;28;20044;-54
2021/09/14 16:55:24;;;;;;;6.45;4.95;;;;;;;24.48;55.26;100152.88;5070274;28;20802;-51
2021/09/14 16:57:52;;;;;;;7.18;5.22;;;;;;;24.55;55.04;100156.59;5066467;28;20570;-53
2021/09/14 17:00:18;;;;;;;6.22;5.10;;;;;;;24.47;55.38;100167.41;5066925;28;20044;-52
2021/09/14 17:02:45;;;;;;;6.70;5.18;;;;;;;24.38;55.59;100166.56;5068844;28;20047;-52
2021/09/14 17:05:12;;;;;;;5.90;5.30;;;;;;;24.29;56.04;100159.41;5063092;28;20040;-52
2021/09/14 17:07:42;;;;;;;5.78;5.18;;;;;;;24.23;56.24;100165.50;5061227;28;20654;-52
2021/09/14 17:10:09;;;;;;;9.75;5.78;;;;;;;24.18;56.37;100153.44;5075284;28;20044;-54
2021/09/14 17:12:36;;;;;;;6.55;5.47;;;;;;;24.12;56.89;100161.22;5076371;28;20052;-53
2021/09/14 17:15:03;;;;;;;9.30;5.82;;;;;;;24.02;57.06;100146.97;5074627;28;20040;-51
2021/09/14 17:17:29;;;;;;;8.70;6.78;;;;;;;23.97;57.33;100141.22;5076252;28;20056;-52
2021/09/14 17:19:56;;;;;;;12.60;6.30;;;;;;;24.07;57.12;100163.56;5075613;28;20068;-55
2021/09/14 17:22:22;;;;;;;6.10;5.18;;;;;;;24.06;57.30;100159.19;5073295;28;20055;-51
2021/09/14 17:24:49;;;;;;;7.00;5.65;;;;;;;24.03;57.43;100155.94;5076944;28;20040;-54
2021/09/14 17:27:15;;;;;;;6.47;5.88;;;;;;;23.98;57.66;100156.44;5073714;28;20052;-51
2021/09/14 17:29:42;;;;;;;8.00;5.88;;;;;;;23.93;57.79;100155.22;5070966;28;20056;-53
2021/09/14 17:32:09;;;;;;;8.82;6.43;;;;;;;23.86;58.20;100149.63;5073164;28;20465;-52
2021/09/14 17:34:36;;;;;;;8.60;6.22;;;;;;;23.81;59.37;100143.00;5072182;28;20052;-52
2021/09/14 17:37:04;;;;;;;7.80;6.50;;;;;;;23.74;59.94;100145.53;5076974;28;20387;-51
2021/09/14 17:39:31;;;;;;;7.85;6.15;;;;;;;23.65;60.96;100147.34;5071030;28;20044;-52
2021/09/14 17:41:58;;;;;;;10.20;6.45;;;;;;;23.55;61.05;100143.91;5076283;28;20055;-53
2021/09/14 17:44:24;;;;;;;7.35;6.38;;;;;;;23.44;61.40;100147.72;5070594;28;20888;-52
2021/09/14 17:46:51;;;;;;;7.45;5.93;;;;;;;23.35;61.81;100145.97;5072824;28;20063;-53
2021/09/14 17:49:17;;;;;;;7.47;6.10;;;;;;;23.30;62.11;100139.34;5072021;28;20147;-53
2021/09/14 17:51:44;;;;;;;6.90;6.20;;;;;;;23.26;62.63;100144.22;5073335;28;20565;-54
2021/09/14 17:54:10;;;;;;;7.68;6.25;;;;;;;23.05;62.96;100125.69;5072137;28;20995;-53
2021/09/14 17:56:37;;;;;;;9.73;6.65;;;;;;;23.18;62.88;100154.97;5073399;28;21950;-51
2021/09/14 17:59:03;;;;;;;7.15;6.03;;;;;;;23.11;63.08;100153.94;5063905;28;20068;-52
2021/09/14 18:01:30;;;;;;;9.30;6.88;;;;;;;23.05;63.44;100143.75;5064428;28;20087;-52
2021/09/14 18:03:57;;;;;;;9.18;7.65;;;;;;;22.98;63.85;100148.09;5063706;28;20140;-52
2021/09/14 18:06:23;;;;;;;8.55;7.65;;;;;;;22.93;64.49;100139.63;5065823;28;20044;-52
2021/09/14 18:08:50;;;;;;;8.65;7.15;;;;;;;22.84;64.99;100137.84;5066116;28;21056;-52
2021/09/14 18:11:16;;;;;;;7.75;6.50;;;;;;;22.82;66.18;100142.56;5072254;28;20048;-52
2021/09/14 18:13:43;;;;;;;9.98;6.95;;;;;;;22.77;66.59;100137.63;5068033;28;20697;-52
2021/09/14 18:16:09;;;;;;;11.10;7.57;;;;;;;22.68;66.83;100131.28;5062645;28;20056;-52
2021/09/14 18:18:36;;;;;;;10.18;7.63;;;;;;;22.61;67.14;100138.31;5065660;28;20492;-52
2021/09/14 18:21:03;;;;;;;7.78;6.72;;;;;;;22.54;67.35;100134.53;5069883;28;20912;-55
2021/09/14 18:23:30;;;;;;;7.75;6.55;;;;;;;22.49;67.55;100138.72;5063452;28;20056;-50
2021/09/14 18:25:56;;;;;;;6.80;6.18;;;;;;;22.44;67.66;100143.72;5066522;28;20061;-52
2021/09/14 18:28:23;;;;;;;7.25;6.55;;;;;;;22.38;67.52;100146.00;5068438;28;20067;-53
2021/09/14 18:30:50;;;;;;;10.25;7.28;;;;;;;22.36;67.64;100139.91;5070548;28;20398;-55
2021/09/14 18:33:16;;;;;;;9.65;7.35;;;;;;;22.34;67.78;100143.78;5069626;28;20051;-51
2021/09/14 18:35:43;;;;;;;9.18;6.85;;;;;;;22.29;68.12;100148.78;5068425;28;20057;-51
2021/09/14 18:38:09;;;;;;;7.68;6.88;;;;;;;22.26;68.32;100149.09;5069635;28;20048;-52
2021/09/14 18:40:36;;;;;;;7.85;6.80;;;;;;;22.21;68.56;100148.69;5069492;28;20064;-51
2021/09/14 18:43:06;;;;;;;10.65;7.55;;;;;;;22.17;69.04;100158.13;5074818;28;20059;-51
2021/09/14 18:45:32;;;;;;;9.13;7.47;;;;;;;22.11;69.23;100147.91;5061959;28;20074;-50
2021/09/14 18:47:59;;;;;;;8.68;7.43;;;;;;;22.04;69.48;100139.56;5068222;28;20047;-52
2021/09/14 18:50:26;;;;;;;10.18;7.68;;;;;;;21.98;69.74;100134.78;5068823;28;20044;-53
2021/09/14 18:52:53;;;;;;;9.93;7.88;;;;;;;21.96;69.97;100147.56;5065087;28;20044;-53
2021/09/14 18:55:19;;;;;;;10.07;8.02;;;;;;;21.97;71.52;100147.41;5067030;28;20127;-53
2021/09/14 18:57:46;;;;;;;11.82;8.20;;;;;;;22.03;71.23;100152.25;5068152;28;20056;-52
2021/09/14 19:00:13;;;;;;;11.90;8.13;;;;;;;22.03;70.59;100152.25;5061848;28;20712;-50
2021/09/14 19:02:39;;;;;;;10.50;8.45;;;;;;;22.00;70.51;100152.53;5075282;28;20473;-51
2021/09/14 19:05:08;;;;;;;10.85;8.20;;;;;;;21.94;70.89;100136.06;5065353;28;20067;-51
2021/09/14 19:07:35;;;;;;;10.50;8.43;;;;;;;21.91;72.04;100152.53;5062376;28;20052;-51
2021/09/14 19:10:04;;;;;;;12.60;9.00;;;;;;;21.85;72.42;100153.16;5067808;28;20047;-52
2021/09/14 19:12:31;;;;;;;12.30;8.83;;;;;;;21.79;72.71;100146.50;5058683;28;20044;-51
2021/09/14 19:14:58;;;;;;;10.30;8.10;;;;;;;21.74;72.88;100159.56;5059733;28;21194;-51
2021/09/14 19:17:24;;;;;;;11.40;8.90;;;;;;;21.73;73.23;100144.41;5064115;28;20043;-51
2021/09/14 19:19:51;;;;;;;11.82;8.68;;;;;;;21.63;73.14;100128.28;5059455;28;20040;-55
2021/09/14 19:22:17;;;;;;;12.18;8.68;;;;;;;21.73;73.69;100154.31;5073040;28;20161;-52
2021/09/14 19:24:44;;;;;;;11.98;8.52;;;;;;;21.72;73.77;100153.50;5064335;28;20043;-53
2021/09/14 19:27:10;;;;;;;13.52;8.63;;;;;;;21.70;73.91;100158.19;5071350;28;20436;-53
2021/09/14 19:29:37;;;;;;;13.77;9.52;;;;;;;21.65;74.18;100158.63;5069584;28;20058;-51
2021/09/14 19:32:04;;;;;;;9.93;8.55;;;;;;;21.62;74.51;100145.44;5064403;28;20664;-53
2021/09/14 19:34:31;;;;;;;12.70;9.77;;;;;;;21.59;74.88;100143.03;5054247;28;20181;-50
2021/09/14 19:36:58;;;;;;;11.40;9.40;;;;;;;21.57;75.31;100144.19;5063417;28;20056;-52
2021/09/14 19:39:24;;;;;;;11.32;9.20;;;;;;;21.52;75.69;100139.28;5062790;28;20048;-54